createdAt,value
2019-02-05T00:01:07.290Z,99951.84
2019-02-05T00:03:39.468Z,99957.06
2019-02-05T00:06:11.793Z,99961.59
2019-02-05T00:08:44.331Z,99958.73
2019-02-05T00:11:16.523Z,99964.13
2019-02-05T00:13:48.857Z,99968.69
2019-02-05T00:16:22.288Z,99961.28
2019-02-05T00:18:54.575Z,99953.50
2019-02-05T00:21:26.823Z,99949.14
2019-02-05T00:24:00.305Z,99948.10
2019-02-05T00:26:32.556Z,99939.34
2019-02-05T00:29:04.766Z,99942.70
2019-02-05T00:31:37.437Z,99947.78
2019-02-05T00:34:09.676Z,99950.80
2019-02-05T00:36:41.992Z,99972.39
2019-02-05T00:39:14.248Z,99982.86
2019-02-05T00:41:46.459Z,99996.19
2019-02-05T00:44:18.943Z,100007.81
2019-02-05T00:46:51.397Z,99993.33
2019-02-05T00:49:23.758Z,99972.08
2019-02-05T00:51:56.120Z,99975.26
2019-02-05T00:54:28.244Z,99987.23
2019-02-05T00:57:00.788Z,99982.52
2019-02-05T00:59:32.877Z,99986.04
2019-02-05T01:02:05.337Z,99986.39
2019-02-05T01:04:38.437Z,99986.39
2019-02-05T01:07:10.704Z,99988.09
2019-02-05T01:09:42.976Z,99984.04
2019-02-05T01:12:15.094Z,99984.52
2019-02-05T01:14:47.596Z,99999.88
2019-02-05T01:17:20.197Z,100014.72
2019-02-05T01:19:52.777Z,100004.76
2019-02-05T01:22:27.362Z,100005.11
2019-02-05T01:24:59.628Z,100000.88
2019-02-05T01:27:31.835Z,100008.48
2019-02-05T01:30:04.159Z,100012.54
2019-02-05T01:32:36.357Z,100011.84
2019-02-05T01:35:08.769Z,100015.72
2019-02-05T01:37:40.961Z,100021.12
2019-02-05T01:40:14.142Z,100029.05
2019-02-05T01:42:46.704Z,100025.34
2019-02-05T01:45:19.668Z,100033.77
2019-02-05T01:47:51.650Z,100041.03
2019-02-05T01:50:24.943Z,100038.82
2019-02-05T01:52:57.167Z,100043.22
2019-02-05T01:55:29.649Z,100036.98
2019-02-05T01:58:01.882Z,100036.47
2019-02-05T02:00:36.046Z,100037.47
2019-02-05T02:03:08.525Z,100033.11
2019-02-05T02:05:40.997Z,100044.56
2019-02-05T02:08:13.548Z,100051.48
2019-02-05T02:10:45.781Z,100044.91
2019-02-05T02:13:17.926Z,100056.88
2019-02-05T02:15:50.415Z,100051.46
2019-02-05T02:18:23.022Z,100059.91
2019-02-05T02:20:55.261Z,100067.14
2019-02-05T02:23:27.496Z,100061.42
2019-02-05T02:25:59.909Z,100069.52
2019-02-05T02:28:32.014Z,100070.00
2019-02-05T02:31:05.114Z,100077.61
2019-02-05T02:33:37.342Z,100084.36
2019-02-05T02:36:09.795Z,100088.41
2019-02-05T02:38:47.403Z,100090.75
2019-02-05T02:41:20.010Z,100094.45
2019-02-05T02:43:52.236Z,100101.70
2019-02-05T02:46:24.966Z,100102.06
2019-02-05T02:48:57.284Z,100095.48
2019-02-05T02:51:29.501Z,100098.33
2019-02-05T02:54:03.042Z,100096.50
2019-02-05T02:56:35.252Z,100099.36
2019-02-05T02:59:09.260Z,100098.33
2019-02-05T03:01:41.481Z,100113.68
2019-02-05T03:04:13.699Z,100125.83
2019-02-05T03:06:45.868Z,100123.10
2019-02-05T03:09:18.317Z,100115.02
2019-02-05T03:11:50.663Z,100120.23
2019-02-05T03:14:23.085Z,100110.80
2019-02-05T03:16:55.705Z,100111.13
2019-02-05T03:19:28.394Z,100124.80
2019-02-05T03:22:00.714Z,100126.48
2019-02-05T03:24:33.306Z,100123.59
2019-02-05T03:27:16.924Z,100124.95
2019-02-05T03:29:39.360Z,100125.11
2019-02-05T03:32:12.013Z,100127.30
2019-02-05T03:34:44.068Z,100119.72
2019-02-05T03:37:16.519Z,100126.46
2019-02-05T03:39:48.688Z,100131.34
2019-02-05T03:42:21.595Z,100124.24
2019-02-05T03:44:57.131Z,100133.55
2019-02-05T03:47:29.910Z,100139.59
2019-02-05T03:50:02.058Z,100148.69
2019-02-05T03:52:39.033Z,100149.72
2019-02-05T03:55:28.044Z,100151.06
2019-02-05T03:58:21.772Z,100151.73
2019-02-05T04:01:11.982Z,100152.25
2019-02-05T04:04:02.815Z,100155.42
2019-02-05T04:06:51.969Z,100149.84
2019-02-05T04:09:43.700Z,100154.41
2019-02-05T04:12:37.196Z,100152.22
2019-02-05T04:15:24.129Z,100163.20
2019-02-05T04:18:15.086Z,100170.94
2019-02-05T04:21:08.834Z,100168.41
2019-02-05T04:23:49.566Z,100178.02
2019-02-05T04:26:27.865Z,100187.45
2019-02-05T04:29:17.530Z,100186.77
2019-02-05T04:32:09.666Z,100189.50
2019-02-05T04:34:57.566Z,100195.89
2019-02-05T04:37:57.260Z,100200.97
2019-02-05T04:40:51.781Z,100190.82
2019-02-05T04:43:40.809Z,100178.71
2019-02-05T04:46:49.560Z,100185.42
2019-02-05T04:49:38.843Z,100183.41
2019-02-05T04:52:28.191Z,100179.67
2019-02-05T04:55:21.690Z,100182.38
2019-02-05T04:58:12.319Z,100198.27
2019-02-05T05:01:09.304Z,100196.05
2019-02-05T05:03:46.376Z,100194.86
2019-02-05T05:06:22.672Z,100189.63
2019-02-05T05:09:19.671Z,100193.84
2019-02-05T05:11:52.000Z,100191.36
2019-02-05T05:14:24.124Z,100193.83
2019-02-05T05:16:56.784Z,100198.58
2019-02-05T05:19:28.823Z,100183.73
2019-02-05T05:22:01.153Z,100201.11
2019-02-05T05:24:33.703Z,100198.73
2019-02-05T05:27:05.992Z,100200.41
2019-02-05T05:29:38.305Z,100200.11
2019-02-05T05:32:10.459Z,100191.41
2019-02-05T05:34:42.773Z,100180.11
2019-02-05T05:37:14.273Z,100182.29
2019-02-05T05:39:46.598Z,100178.57
2019-02-05T05:42:18.894Z,100173.98
2019-02-05T05:44:51.230Z,100164.70
2019-02-05T05:47:23.456Z,100152.73
2019-02-05T05:49:55.796Z,100154.95
2019-02-05T05:52:27.983Z,100141.45
2019-02-05T05:55:00.425Z,100135.20
2019-02-05T05:57:33.464Z,100131.31
2019-02-05T06:00:05.810Z,100125.44
2019-02-05T06:02:39.932Z,100125.76
2019-02-05T06:05:14.252Z,100124.76
2019-02-05T06:07:46.649Z,100118.84
2019-02-05T06:10:19.123Z,100111.27
2019-02-05T06:12:51.459Z,100109.09
2019-02-05T06:15:23.719Z,100112.63
2019-02-05T06:17:57.622Z,100110.44
2019-02-05T06:20:29.775Z,100114.80
2019-02-05T06:23:01.971Z,100104.02
2019-02-05T06:25:34.010Z,100096.44
2019-02-05T06:28:07.561Z,100097.78
2019-02-05T06:30:40.106Z,100095.09
2019-02-05T06:33:12.772Z,100086.00
2019-02-05T06:35:45.012Z,100090.53
2019-02-05T06:38:17.263Z,100083.62
2019-02-05T06:40:49.384Z,100087.37
2019-02-05T06:43:23.936Z,100074.53
2019-02-05T06:45:56.154Z,100071.48
2019-02-05T06:48:28.312Z,100066.09
2019-02-05T06:51:02.404Z,100055.64
2019-02-05T06:53:34.927Z,100063.09
2019-02-05T06:56:06.980Z,100056.34
2019-02-05T06:58:45.990Z,100037.63
2019-02-05T07:01:13.359Z,100041.50
2019-02-05T07:03:45.661Z,100030.72
2019-02-05T07:06:17.752Z,100015.53
2019-02-05T07:08:49.985Z,100005.58
2019-02-05T07:11:22.440Z,100006.75
2019-02-05T07:13:54.860Z,99995.97
2019-02-05T07:16:26.979Z,99994.61
2019-02-05T07:18:59.314Z,99991.44
2019-02-05T07:21:31.610Z,99985.52
2019-02-05T07:24:04.160Z,99981.83
2019-02-05T07:26:37.835Z,99973.39
2019-02-05T07:29:12.082Z,99972.56
2019-02-05T07:31:44.502Z,99957.89
2019-02-05T07:34:17.752Z,99957.20
2019-02-05T07:36:52.016Z,99950.64
2019-02-05T07:39:24.242Z,99950.81
2019-02-05T07:41:57.672Z,99956.03
2019-02-05T07:44:29.800Z,99952.66
2019-02-05T07:47:03.088Z,99943.38
2019-02-05T07:49:35.252Z,99939.50
2019-02-05T07:52:09.393Z,99934.94
2019-02-05T07:54:41.551Z,99932.07
2019-02-05T07:57:13.699Z,99918.75
2019-02-05T07:59:47.137Z,99916.41
2019-02-05T08:02:19.502Z,99913.35
2019-02-05T08:04:51.596Z,99911.00
2019-02-05T08:07:23.643Z,99906.61
2019-02-05T08:09:55.783Z,99904.26
2019-02-05T08:12:27.975Z,99899.88
2019-02-05T08:15:00.352Z,99884.20
2019-02-05T08:17:33.615Z,99886.73
2019-02-05T08:20:06.078Z,99879.30
2019-02-05T08:22:38.250Z,99875.42
2019-02-05T08:25:11.240Z,99870.54
2019-02-05T08:27:43.558Z,99873.23
2019-02-05T08:30:17.588Z,99868.19
2019-02-05T08:32:49.698Z,99862.96
2019-02-05T08:35:21.732Z,99856.70
2019-02-05T08:37:53.982Z,99844.56
2019-02-05T08:40:26.200Z,99841.03
2019-02-05T08:42:59.348Z,99844.22
2019-02-05T08:45:31.836Z,99842.55
2019-02-05T08:48:04.103Z,99843.04
2019-02-05T08:50:36.134Z,99837.81
2019-02-05T08:53:09.430Z,99839.52
2019-02-05T08:55:41.555Z,99837.16
2019-02-05T08:58:14.312Z,99830.07
2019-02-05T09:00:46.579Z,99830.41
2019-02-05T09:03:18.697Z,99830.90
2019-02-05T09:05:50.916Z,99831.24
2019-02-05T09:08:24.147Z,99832.08
2019-02-05T09:10:56.643Z,99829.38
2019-02-05T09:13:28.783Z,99820.28
2019-02-05T09:16:00.864Z,99812.18
2019-02-05T09:18:32.934Z,99809.83
2019-02-05T09:21:05.059Z,99810.66
2019-02-05T09:23:37.560Z,99803.43
2019-02-05T09:26:09.856Z,99800.21
2019-02-05T09:28:41.863Z,99796.16
2019-02-05T09:31:14.028Z,99796.16
2019-02-05T09:33:46.266Z,99796.33
2019-02-05T09:36:18.328Z,99792.45
2019-02-05T09:38:50.560Z,99784.84
2019-02-05T09:41:22.676Z,99781.14
2019-02-05T09:43:54.970Z,99773.38
2019-02-05T09:46:27.167Z,99772.70
2019-02-05T09:48:59.160Z,99763.42
2019-02-05T09:51:31.330Z,99761.20
2019-02-05T09:54:04.313Z,99756.31
2019-02-05T09:56:36.629Z,99754.43
2019-02-05T09:59:08.849Z,99752.55
2019-02-05T10:01:42.072Z,99745.14
2019-02-05T10:04:14.314Z,99744.61
2019-02-05T10:06:46.402Z,99740.54
2019-02-05T10:09:19.677Z,99744.58
2019-02-05T10:11:51.760Z,99738.48
2019-02-05T10:14:24.042Z,99739.50
2019-02-05T10:16:56.616Z,99736.80
2019-02-05T10:19:28.719Z,99730.70
2019-02-05T10:22:00.859Z,99723.77
2019-02-05T10:24:33.000Z,99734.75
2019-02-05T10:27:07.852Z,99728.83
2019-02-05T10:29:40.357Z,99722.06
2019-02-05T10:32:12.610Z,99722.59
2019-02-05T10:34:44.743Z,99725.13
2019-02-05T10:37:16.852Z,99720.91
2019-02-05T10:39:49.038Z,99711.81
2019-02-05T10:42:22.670Z,99719.09
2019-02-05T10:44:55.046Z,99715.52
2019-02-05T10:47:27.214Z,99713.16
2019-02-05T10:50:00.255Z,99707.41
2019-02-05T10:52:33.269Z,99715.03
2019-02-05T10:55:05.542Z,99705.06
2019-02-05T10:57:37.764Z,99701.72
2019-02-05T11:00:11.595Z,99704.23
2019-02-05T11:02:44.047Z,99692.09
2019-02-05T11:05:17.411Z,99687.17
2019-02-05T11:07:49.837Z,99693.92
2019-02-05T11:10:22.211Z,99690.73
2019-02-05T11:12:55.294Z,99691.08
2019-02-05T11:15:32.241Z,99686.69
2019-02-05T11:18:04.538Z,99689.73
2019-02-05T11:20:36.805Z,99682.97
2019-02-05T11:23:09.298Z,99680.27
2019-02-05T11:25:41.236Z,99683.28
2019-02-05T11:28:13.407Z,99681.45
2019-02-05T11:30:47.221Z,99683.10
2019-02-05T11:33:19.903Z,99681.94
2019-02-05T11:35:51.997Z,99687.67
2019-02-05T11:38:24.442Z,99688.84
2019-02-05T11:40:56.821Z,99680.41
2019-02-05T11:43:29.321Z,99680.74
2019-02-05T11:46:02.790Z,99677.86
2019-02-05T11:48:34.821Z,99675.16
2019-02-05T11:51:06.977Z,99682.78
2019-02-05T11:53:39.622Z,99674.49
2019-02-05T11:56:11.671Z,99670.93
2019-02-05T11:58:44.543Z,99659.30
2019-02-05T12:01:23.049Z,99660.13
2019-02-05T12:03:55.045Z,99660.81
2019-02-05T12:06:28.231Z,99664.86
2019-02-05T12:09:00.267Z,99669.22
2019-02-05T12:11:35.026Z,99679.53
2019-02-05T12:14:06.963Z,99675.97
2019-02-05T12:16:40.168Z,99672.63
2019-02-05T12:19:12.222Z,99670.27
2019-02-05T12:21:44.493Z,99664.87
2019-02-05T12:24:16.856Z,99663.83
2019-02-05T12:26:49.230Z,99659.78
2019-02-05T12:29:21.159Z,99669.91
2019-02-05T12:31:53.390Z,99660.45
2019-02-05T12:34:25.516Z,99647.78
2019-02-05T12:36:59.050Z,99640.20
2019-02-05T12:39:31.074Z,99636.98
2019-02-05T12:42:04.146Z,99642.72
2019-02-05T12:44:36.393Z,99650.30
2019-02-05T12:47:09.522Z,99647.11
2019-02-05T12:49:41.938Z,99645.23
2019-02-05T12:52:13.748Z,99641.19
2019-02-05T12:54:46.095Z,99637.47
2019-02-05T12:57:18.165Z,99636.13
2019-02-05T12:59:50.538Z,99630.72
2019-02-05T13:02:22.846Z,99629.38
2019-02-05T13:04:55.052Z,99629.19
2019-02-05T13:07:27.307Z,99630.02
2019-02-05T13:10:00.756Z,99632.20
2019-02-05T13:12:32.943Z,99640.64
2019-02-05T13:15:06.322Z,99642.51
2019-02-05T13:17:39.543Z,99646.91
2019-02-05T13:20:13.768Z,99649.61
2019-02-05T13:22:46.060Z,99648.56
2019-02-05T13:25:20.855Z,99640.45
2019-02-05T13:27:53.234Z,99635.05
2019-02-05T13:30:28.832Z,99639.62
2019-02-05T13:33:02.069Z,99646.53
2019-02-05T13:35:35.159Z,99644.33
2019-02-05T13:38:07.525Z,99652.77
2019-02-05T13:40:40.026Z,99647.37
2019-02-05T13:43:16.808Z,99647.70
2019-02-05T13:45:49.135Z,99643.13
2019-02-05T13:48:21.171Z,99652.25
2019-02-05T13:50:53.303Z,99660.69
2019-02-05T13:53:25.643Z,99667.78
2019-02-05T13:55:58.142Z,99666.25
2019-02-05T13:58:30.149Z,99674.36
2019-02-05T14:01:02.435Z,99672.48
2019-02-05T14:03:34.744Z,99678.41
2019-02-05T14:06:07.015Z,99687.69
2019-02-05T14:08:38.895Z,99689.55
2019-02-05T14:11:11.285Z,99688.67
2019-02-05T14:13:43.511Z,99677.38
2019-02-05T14:16:15.962Z,99680.08
2019-02-05T14:18:54.823Z,99682.75
2019-02-05T14:21:22.011Z,99688.64
2019-02-05T14:23:54.506Z,99682.39
2019-02-05T14:26:27.271Z,99670.59
2019-02-05T14:28:59.315Z,99673.97
2019-02-05T14:31:31.764Z,99695.40
2019-02-05T14:34:03.985Z,99704.52
2019-02-05T14:36:37.368Z,99704.52
2019-02-05T14:39:10.763Z,99698.08
2019-02-05T14:41:43.116Z,99697.73
2019-02-05T14:44:15.230Z,99697.92
2019-02-05T14:46:47.555Z,99708.55
2019-02-05T14:49:19.728Z,99705.84
2019-02-05T14:51:53.961Z,99711.41
2019-02-05T14:54:26.172Z,99712.21
2019-02-05T14:56:58.973Z,99706.68
2019-02-05T14:59:31.611Z,99710.05
2019-02-05T15:02:03.921Z,99711.93
2019-02-05T15:04:36.192Z,99718.34
2019-02-05T15:07:08.545Z,99719.17
2019-02-05T15:09:40.793Z,99721.69
2019-02-05T15:12:13.223Z,99733.55
2019-02-05T15:14:45.355Z,99730.32
2019-02-05T15:17:17.575Z,99737.59
2019-02-05T15:19:49.564Z,99739.26
2019-02-05T15:22:21.715Z,99739.78
2019-02-05T15:24:53.765Z,99749.23
2019-02-05T15:27:26.294Z,99746.88
2019-02-05T15:29:58.523Z,99746.36
2019-02-05T15:32:55.696Z,99744.15
2019-02-05T15:35:27.706Z,99737.19
2019-02-05T15:38:00.124Z,99748.96
2019-02-05T15:40:32.443Z,99741.13
2019-02-05T15:43:06.164Z,99746.23
2019-02-05T15:45:38.357Z,99747.34
2019-02-05T15:48:10.612Z,99739.70
2019-02-05T15:50:42.799Z,99742.71
2019-02-05T15:53:14.969Z,99738.59
2019-02-05T15:55:47.705Z,99741.63
2019-02-05T15:58:20.396Z,99746.03
2019-02-05T16:00:53.040Z,99742.13
2019-02-05T16:03:25.274Z,99735.36
2019-02-05T16:05:57.517Z,99738.22
2019-02-05T16:08:29.804Z,99738.87
2019-02-05T16:11:02.041Z,99732.44
2019-02-05T16:13:34.530Z,99734.44
2019-02-05T16:16:06.661Z,99736.92
2019-02-05T16:18:38.961Z,99730.58
2019-02-05T16:21:11.196Z,99727.19
2019-02-05T16:23:43.531Z,99724.26
2019-02-05T16:26:15.670Z,99728.66
2019-02-05T16:28:48.318Z,99720.81
2019-02-05T16:31:20.408Z,99720.31
2019-02-05T16:33:52.744Z,99720.13
2019-02-05T16:36:25.002Z,99723.95
2019-02-05T16:38:57.269Z,99721.89
2019-02-05T16:41:29.849Z,99706.70
2019-02-05T16:44:02.206Z,99706.47
2019-02-05T16:46:34.454Z,99703.95
2019-02-05T16:49:07.345Z,99708.61
2019-02-05T16:51:39.502Z,99710.80
2019-02-05T16:54:11.829Z,99710.53
2019-02-05T16:56:44.158Z,99710.34
2019-02-05T16:59:17.344Z,99703.20
2019-02-05T17:01:49.418Z,99699.09
2019-02-05T17:04:21.826Z,99702.34
2019-02-05T17:06:54.129Z,99695.58
2019-02-05T17:09:27.680Z,99687.50
2019-02-05T17:12:00.068Z,99681.31
2019-02-05T17:14:33.621Z,99687.55
2019-02-05T17:17:05.826Z,99684.46
2019-02-05T17:19:38.226Z,99677.69
2019-02-05T17:22:10.472Z,99676.15
2019-02-05T17:24:43.715Z,99682.09
2019-02-05T17:27:15.922Z,99674.30
2019-02-05T17:29:50.090Z,99676.44
2019-02-05T17:32:22.061Z,99672.76
2019-02-05T17:34:54.215Z,99675.61
2019-02-05T17:37:26.399Z,99668.84
2019-02-05T17:39:58.645Z,99664.97
2019-02-05T17:42:30.927Z,99670.50
2019-02-05T17:45:03.194Z,99664.73
2019-02-05T17:47:35.508Z,99663.38
2019-02-05T17:50:07.953Z,99645.44
2019-02-05T17:52:40.115Z,99644.37
2019-02-05T17:55:12.513Z,99647.32
2019-02-05T17:57:46.655Z,99650.14
2019-02-05T18:00:25.508Z,99651.63
2019-02-05T18:02:58.710Z,99647.38
2019-02-05T18:05:34.806Z,99644.86
2019-02-05T18:08:05.807Z,99647.91
2019-02-05T18:10:38.127Z,99642.87
2019-02-05T18:13:10.442Z,99636.16
2019-02-05T18:15:42.409Z,99633.45
2019-02-05T18:18:14.597Z,99637.80
2019-02-05T18:20:46.678Z,99631.36
2019-02-05T18:23:18.993Z,99620.41
2019-02-05T18:25:51.187Z,99602.20
2019-02-05T18:28:23.341Z,99606.59
2019-02-05T18:30:56.130Z,99610.41
2019-02-05T18:33:28.300Z,99601.75
2019-02-05T18:36:00.607Z,99600.59
2019-02-05T18:38:32.943Z,99603.44
2019-02-05T18:41:05.108Z,99608.91
2019-02-05T18:43:37.362Z,99599.74
2019-02-05T18:46:09.536Z,99592.64
2019-02-05T18:48:41.886Z,99592.22
2019-02-05T18:51:14.304Z,99588.05
2019-02-05T18:53:46.814Z,99587.58
2019-02-05T18:56:19.151Z,99583.38
2019-02-05T18:58:51.373Z,99580.53
2019-02-05T19:01:23.702Z,99585.12
2019-02-05T19:03:56.212Z,99575.97
2019-02-05T19:06:29.449Z,99566.88
2019-02-05T19:09:05.999Z,99562.49
2019-02-05T19:11:38.158Z,99555.39
2019-02-05T19:14:10.432Z,99542.05
2019-02-05T19:16:42.739Z,99550.70
2019-02-05T19:19:16.317Z,99566.27
2019-02-05T19:21:48.693Z,99576.74
2019-02-05T19:24:38.790Z,99588.92
2019-02-05T19:27:11.160Z,99600.10
2019-02-05T19:29:43.281Z,99587.62
2019-02-05T19:32:18.928Z,99571.58
2019-02-05T19:34:51.169Z,99556.36
2019-02-05T19:37:23.522Z,99536.25
2019-02-05T19:39:56.429Z,99520.65
2019-02-05T19:42:28.903Z,99509.69
2019-02-05T19:45:19.146Z,99507.50
2019-02-05T19:47:51.587Z,99504.27
2019-02-05T19:50:23.700Z,99497.40
2019-02-05T19:52:57.036Z,99512.58
2019-02-05T19:55:29.384Z,99520.40
2019-02-05T19:58:02.346Z,99528.19
2019-02-05T20:00:34.591Z,99562.02
2019-02-05T20:03:06.903Z,99563.36
2019-02-05T20:05:39.491Z,99563.03
2019-02-05T20:08:11.971Z,99546.80
2019-02-05T20:10:45.448Z,99548.14
2019-02-05T20:13:17.777Z,99541.38
2019-02-05T20:15:51.264Z,99537.32
2019-02-05T20:18:23.929Z,99549.50
2019-02-05T20:20:56.012Z,99557.23
2019-02-05T20:23:28.433Z,99564.47
2019-02-05T20:26:00.558Z,99566.07
2019-02-05T20:28:32.891Z,99552.54
2019-02-05T20:31:05.159Z,99524.81
2019-02-05T20:33:37.383Z,99515.34
2019-02-05T20:36:09.522Z,99530.94
2019-02-05T20:38:41.733Z,99531.96
2019-02-05T20:41:14.099Z,99522.83
2019-02-05T20:43:46.439Z,99537.38
2019-02-05T20:46:18.495Z,99547.86
2019-02-05T20:48:52.923Z,99552.78
2019-02-05T20:51:25.152Z,99552.06
2019-02-05T20:53:59.743Z,99579.31
2019-02-05T20:56:32.022Z,99557.48
2019-02-05T20:59:24.939Z,99583.52
2019-02-05T21:01:57.664Z,99581.64
2019-02-05T21:04:29.822Z,99557.28
2019-02-05T21:07:02.223Z,99554.27
2019-02-05T21:09:34.489Z,99563.22
2019-02-05T21:12:07.142Z,99540.36
2019-02-05T21:14:40.110Z,99541.72
2019-02-05T21:17:12.496Z,99534.95
2019-02-05T21:19:44.740Z,99537.13
2019-02-05T21:22:17.259Z,99519.34
2019-02-05T21:24:50.015Z,99496.05
2019-02-05T21:27:22.343Z,99476.24
2019-02-05T21:29:54.495Z,99458.02
2019-02-05T21:32:26.802Z,99444.98
2019-02-05T21:34:59.020Z,99439.08
2019-02-05T21:37:31.259Z,99426.38
2019-02-05T21:40:03.395Z,99416.08
2019-02-05T21:42:36.647Z,99423.67
2019-02-05T21:45:08.869Z,99432.13
2019-02-05T21:47:41.008Z,99450.73
2019-02-05T21:50:13.693Z,99462.91
2019-02-05T21:52:48.595Z,99454.98
2019-02-05T21:55:19.956Z,99448.75
2019-02-05T21:57:52.123Z,99451.95
2019-02-05T22:00:25.469Z,99439.96
2019-02-05T22:02:57.709Z,99425.08
2019-02-05T22:05:29.830Z,99410.86
2019-02-05T22:08:02.400Z,99397.83
2019-02-05T22:10:35.154Z,99392.95
2019-02-05T22:13:07.617Z,99384.30
2019-02-05T22:15:39.651Z,99388.89
2019-02-05T22:18:11.823Z,99378.70
2019-02-05T22:20:43.991Z,99378.75
2019-02-05T22:23:16.665Z,99402.42
2019-02-05T22:25:48.797Z,99432.38
2019-02-05T22:28:21.074Z,99466.53
2019-02-05T22:30:54.488Z,99499.16
2019-02-05T22:33:28.171Z,99507.11
2019-02-05T22:36:00.560Z,99483.59
2019-02-05T22:38:32.738Z,99439.63
2019-02-05T22:41:04.921Z,99415.42
2019-02-05T22:43:37.076Z,99400.23
2019-02-05T22:46:09.218Z,99381.16
2019-02-05T22:48:41.704Z,99377.73
2019-02-05T22:51:13.885Z,99367.24
2019-02-05T22:53:46.258Z,99366.72
2019-02-05T22:56:18.433Z,99375.98
2019-02-05T22:58:50.904Z,99368.06
2019-02-05T23:01:28.577Z,99370.77
2019-02-05T23:04:03.617Z,99358.59
2019-02-05T23:06:53.086Z,99350.88
2019-02-05T23:09:27.406Z,99338.70
2019-02-05T23:12:22.672Z,99338.89
2019-02-05T23:14:56.622Z,99340.25
2019-02-05T23:17:28.808Z,99341.27
2019-02-05T23:20:00.995Z,99340.25
2019-02-05T23:22:33.245Z,99349.19
2019-02-05T23:25:05.449Z,99341.80
2019-02-05T23:27:37.923Z,99344.64
2019-02-05T23:30:13.463Z,99339.22
2019-02-05T23:32:45.872Z,99338.89
2019-02-05T23:35:18.165Z,99341.27
2019-02-05T23:37:51.077Z,99342.95
2019-02-05T23:40:23.273Z,99337.87
2019-02-05T23:42:55.574Z,99327.88
2019-02-05T23:45:27.814Z,99330.58
2019-02-05T23:48:00.390Z,99321.94
2019-02-05T23:50:32.553Z,99316.42
2019-02-05T23:53:04.834Z,99314.22
2019-02-05T23:55:36.995Z,99317.97
2019-02-05T23:58:09.504Z,99319.33
